Time;durP1;ratioP1;P1;durP2;ratioP2;P2;SDS_P1;SDS_P2;PMS_P1;PMS_P2;Temp;Humidity;BMP_temperature;BMP_pressure;BME280_temperature;BME280_humidity;BME280_pressure;Samples;Min_cycle;Max_cycle;Signal;HPM_P1;HPM_P2
2023/01/17 00:01:48;;;;;;;2.40;1.43;;;7.60;59.30;;;;;;5055592;28;22050;-88
2023/01/17 00:09:55;;;;;;;3.30;2.50;;;7.60;58.70;;;;;;5042452;28;20443;-88
2023/01/17 00:12:24;;;;;;;2.13;1.30;;;7.50;59.60;;;;;;5030095;28;20440;-86
2023/01/17 00:14:53;;;;;;;3.23;1.60;;;7.50;59.30;;;;;;5048725;28;20455;-87
2023/01/17 00:17:20;;;;;;;2.37;1.70;;;7.70;59.20;;;;;;5075309;28;21011;-88
2023/01/17 01:34:46;;;;;;;4.93;2.33;;;7.50;55.90;;;;;;5031986;28;20885;-87
2023/01/17 01:37:12;;;;;;;4.00;2.07;;;7.60;56.50;;;;;;5046105;28;20524;-87
2023/01/17 01:39:39;;;;;;;3.57;2.47;;;7.70;56.10;;;;;;5032011;28;20468;-86
2023/01/17 01:42:13;;;;;;;3.40;3.10;;;7.80;55.90;;;;;;5047903;28;20456;-86
2023/01/17 01:44:49;;;;;;;3.43;2.30;;;7.70;55.80;;;;;;5050341;28;20454;-87
2023/01/17 01:47:23;;;;;;;4.37;2.60;;;7.70;55.90;;;;;;5047277;28;20453;-86
2023/01/17 01:49:50;;;;;;;4.83;2.50;;;7.70;55.50;;;;;;5030586;28;20458;-86
2023/01/17 01:52:20;;;;;;;2.57;2.33;;;7.80;55.10;;;;;;5028731;28;21078;-86
2023/01/17 01:54:51;;;;;;;2.97;2.03;;;7.60;55.90;;;;;;5064836;28;20501;-86
2023/01/17 01:57:22;;;;;;;4.57;2.00;;;7.60;55.10;;;;;;5062796;28;20465;-86
2023/01/17 01:59:56;;;;;;;4.63;1.70;;;7.60;54.80;;;;;;5043908;28;20867;-86
2023/01/17 02:02:22;;;;;;;4.70;1.40;;;7.50;54.90;;;;;;5062374;28;20952;-87
2023/01/17 02:04:50;;;;;;;4.40;1.63;;;7.30;55.20;;;;;;5046178;28;20983;-87
2023/01/17 02:07:22;;;;;;;3.27;1.90;;;7.20;54.70;;;;;;5032230;28;20456;-87
2023/01/17 02:09:49;;;;;;;3.20;1.57;;;7.10;55.50;;;;;;5025652;28;20444;-87
2023/01/17 02:12:18;;;;;;;2.80;1.63;;;6.90;54.90;;;;;;5045160;28;20941;-87
2023/01/17 02:14:45;;;;;;;4.37;1.50;;;6.80;55.00;;;;;;5042687;28;20443;-88
2023/01/17 02:17:38;;;;;;;3.30;1.63;;;6.80;55.40;;;;;;5081948;28;20452;-88
2023/01/17 02:20:42;;;;;;;2.50;1.70;;;6.80;55.40;;;;;;5064544;28;20456;-87
2023/01/17 02:23:48;;;;;;;1.80;1.70;;;6.90;55.20;;;;;;5065309;28;20537;-87
2023/01/17 02:26:59;;;;;;;3.10;2.07;;;6.80;54.70;;;;;;5079445;28;21156;-85
2023/01/17 02:30:18;;;;;;;9.43;1.83;;;6.80;54.00;;;;;;5056796;28;20455;-86
2023/01/17 02:32:55;;;;;;;2.07;1.83;;;6.80;54.30;;;;;;5047671;28;20467;-87
2023/01/17 02:35:31;;;;;;;2.67;1.93;;;7.10;54.00;;;;;;5045831;28;21480;-86
2023/01/17 02:38:06;;;;;;;1.60;1.50;;;7.10;53.50;;;;;;5040353;28;20464;-87
2023/01/17 02:40:37;;;;;;;6.70;1.70;;;6.90;53.20;;;;;;5024792;28;20459;-88
2023/01/17 02:43:09;;;;;;;4.60;1.67;;;7.00;53.80;;;;;;5047397;28;20447;-86
2023/01/17 02:45:36;;;;;;;1.70;1.60;;;6.70;52.80;;;;;;5047846;28;20448;-86
2023/01/17 02:48:06;;;;;;;4.67;1.70;;;6.70;53.50;;;;;;5047138;28;20459;-86
2023/01/17 02:50:45;;;;;;;1.93;1.47;;;6.80;53.60;;;;;;5048544;28;20861;-87
2023/01/17 02:53:27;;;;;;;2.20;1.90;;;7.00;52.90;;;;;;5047028;28;20451;-87
2023/01/17 02:55:58;;;;;;;6.87;2.10;;;7.40;53.00;;;;;;5049725;28;20485;-88
2023/01/17 02:58:40;;;;;;;6.30;2.63;;;7.30;51.70;;;;;;5063008;28;20452;-86
2023/01/17 03:01:17;;;;;;;3.40;2.00;;;7.20;52.50;;;;;;5044302;28;20467;-86
2023/01/17 03:03:50;;;;;;;2.00;1.43;;;7.10;52.10;;;;;;5030261;28;20458;-87
2023/01/17 03:06:20;;;;;;;2.90;2.13;;;7.20;52.60;;;;;;5029606;28;20520;-88
2023/01/17 03:08:50;;;;;;;4.07;1.40;;;7.20;52.50;;;;;;5062927;28;20454;-87
2023/01/17 03:11:17;;;;;;;3.33;2.13;;;7.10;51.30;;;;;;5039742;28;21154;-88
2023/01/17 03:13:44;;;;;;;2.47;2.00;;;7.10;51.60;;;;;;5025094;28;20531;-86
2023/01/17 03:16:16;;;;;;;2.53;1.77;;;7.10;51.50;;;;;;5020512;28;20501;-87
2023/01/17 03:18:43;;;;;;;3.83;1.63;;;7.10;51.50;;;;;;5060324;28;20474;-88
2023/01/17 03:21:12;;;;;;;2.00;1.60;;;7.20;51.80;;;;;;5048318;28;21055;-87
2023/01/17 03:23:39;;;;;;;8.40;2.23;;;7.10;51.50;;;;;;5066200;28;20467;-85
2023/01/17 03:26:06;;;;;;;7.70;2.20;;;7.30;52.20;;;;;;5029661;28;20780;-87
2023/01/17 03:28:34;;;;;;;4.03;1.87;;;7.40;51.80;;;;;;5024780;28;20444;-87
2023/01/17 03:31:01;;;;;;;4.90;1.50;;;7.50;51.20;;;;;;5063135;28;20470;-86
2023/01/17 03:33:28;;;;;;;4.60;2.93;;;7.50;51.50;;;;;;5027437;28;20448;-87
2023/01/17 03:35:56;;;;;;;15.13;4.03;;;7.40;51.60;;;;;;5062316;28;20451;-87
2023/01/17 03:38:25;;;;;;;25.40;10.63;;;7.50;52.10;;;;;;5031622;28;20995;-87
2023/01/17 03:40:52;;;;;;;18.13;7.43;;;7.50;51.70;;;;;;5063370;28;20460;-88
2023/01/17 03:43:19;;;;;;;9.10;3.80;;;7.60;51.60;;;;;;5046287;28;20458;-87
2023/01/17 03:45:49;;;;;;;5.17;2.53;;;7.60;51.10;;;;;;5042507;28;20443;-86
2023/01/17 03:48:16;;;;;;;15.10;5.53;;;7.60;50.90;;;;;;5038640;28;20448;-86
2023/01/17 03:50:42;;;;;;;42.07;13.30;;;7.60;51.00;;;;;;5029721;28;20551;-87
2023/01/17 03:53:09;;;;;;;23.20;7.53;;;7.50;51.40;;;;;;5047759;28;20436;-87
2023/01/17 03:55:37;;;;;;;5.40;3.40;;;7.30;51.20;;;;;;5047066;28;20467;-87
2023/01/17 03:58:04;;;;;;;2.50;2.27;;;7.00;51.80;;;;;;5061699;28;20609;-87
2023/01/17 04:00:31;;;;;;;5.83;4.43;;;6.90;51.80;;;;;;5046137;28;20472;-87
2023/01/17 04:02:58;;;;;;;2.30;1.30;;;6.90;51.70;;;;;;5056377;28;20466;-88
2023/01/17 04:05:25;;;;;;;4.17;2.00;;;6.80;51.60;;;;;;5062490;28;20464;-88
2023/01/17 04:07:52;;;;;;;3.77;2.10;;;6.70;51.90;;;;;;5042142;28;20491;-86
2023/01/17 04:10:19;;;;;;;4.87;3.07;;;6.80;52.00;;;;;;5028256;28;20596;-87
2023/01/17 04:12:47;;;;;;;6.20;3.27;;;6.80;52.10;;;;;;5045306;28;20436;-86
2023/01/17 04:15:14;;;;;;;2.47;1.83;;;6.90;52.20;;;;;;5046561;28;20467;-87
2023/01/17 04:17:41;;;;;;;2.60;2.20;;;7.00;51.80;;;;;;5062699;28;20492;-87
2023/01/17 04:20:16;;;;;;;2.50;1.67;;;7.20;51.60;;;;;;5045850;28;20547;-87
2023/01/17 04:22:43;;;;;;;3.30;1.97;;;7.20;51.40;;;;;;5047520;28;20940;-87
2023/01/17 04:25:10;;;;;;;1.70;1.57;;;7.20;51.60;;;;;;5041499;28;20444;-86
2023/01/17 04:27:37;;;;;;;2.67;1.73;;;7.10;51.70;;;;;;5064622;28;20455;-86
2023/01/17 04:30:06;;;;;;;6.83;2.20;;;7.10;51.80;;;;;;5060931;28;20479;-86
2023/01/17 04:32:33;;;;;;;4.13;2.00;;;7.00;51.50;;;;;;5064961;28;20471;-87
2023/01/17 04:35:00;;;;;;;4.70;1.97;;;7.00;51.70;;;;;;5047268;28;20512;-87
2023/01/17 04:37:27;;;;;;;2.07;1.60;;;7.20;51.20;;;;;;5063205;28;20457;-87
2023/01/17 04:39:53;;;;;;;1.67;1.57;;;7.00;51.00;;;;;;5045864;28;20459;-87
2023/01/17 04:42:20;;;;;;;2.83;1.90;;;7.00;51.50;;;;;;5027887;28;20530;-87
2023/01/17 04:44:47;;;;;;;4.70;2.20;;;7.10;51.30;;;;;;5030130;28;20964;-87
2023/01/17 04:47:15;;;;;;;2.00;1.80;;;6.90;51.80;;;;;;5048726;28;20448;-87
2023/01/17 04:49:42;;;;;;;2.97;2.50;;;6.90;51.90;;;;;;5045690;28;20497;-86
2023/01/17 04:52:09;;;;;;;2.70;2.13;;;6.90;51.90;;;;;;5028309;28;20790;-89
2023/01/17 04:55:01;;;;;;;3.13;2.33;;;6.80;52.10;;;;;;5029222;28;20941;-88
2023/01/17 04:57:28;;;;;;;3.73;3.33;;;7.00;52.00;;;;;;5043340;28;20448;-88
2023/01/17 04:59:55;;;;;;;16.03;7.53;;;7.20;52.10;;;;;;5043487;28;20469;-87
2023/01/17 05:02:23;;;;;;;8.87;4.93;;;7.10;51.80;;;;;;5047787;28;20457;-87
2023/01/17 05:04:50;;;;;;;12.93;7.90;;;7.30;51.80;;;;;;5028559;28;20448;-85
2023/01/17 05:07:17;;;;;;;3.50;2.67;;;7.30;52.00;;;;;;5028865;28;20452;-87
2023/01/17 05:09:44;;;;;;;8.10;2.23;;;7.10;52.00;;;;;;5041674;28;20459;-87
2023/01/17 05:12:11;;;;;;;5.03;3.10;;;7.10;52.40;;;;;;5058089;28;21345;-87
2023/01/17 05:14:38;;;;;;;4.17;3.37;;;6.90;52.60;;;;;;5044984;28;20505;-88
2023/01/17 05:17:06;;;;;;;2.87;2.23;;;6.70;53.10;;;;;;5058187;28;20459;-87
2023/01/17 05:19:34;;;;;;;3.53;2.00;;;6.60;53.60;;;;;;5030203;28;20456;-87
2023/01/17 05:22:02;;;;;;;3.60;2.30;;;6.50;54.20;;;;;;5057712;28;20456;-86
2023/01/17 05:24:31;;;;;;;4.50;2.90;;;6.40;54.80;;;;;;5062749;28;20959;-87
2023/01/17 05:27:02;;;;;;;3.37;2.20;;;6.50;54.50;;;;;;5059740;28;20443;-87
2023/01/17 05:29:30;;;;;;;2.90;2.10;;;6.70;54.10;;;;;;5060083;28;20450;-86
2023/01/17 05:31:57;;;;;;;3.13;1.73;;;6.70;54.10;;;;;;5026223;28;20466;-88
2023/01/17 05:34:24;;;;;;;4.33;2.73;;;6.50;54.50;;;;;;5042138;28;20463;-87
2023/01/17 05:36:52;;;;;;;5.17;2.63;;;6.70;54.20;;;;;;5029825;28;20452;-87
2023/01/17 05:39:19;;;;;;;6.13;2.53;;;6.80;53.90;;;;;;5039717;28;20877;-88
2023/01/17 05:41:46;;;;;;;3.57;2.17;;;6.90;53.70;;;;;;5056860;28;20464;-87
2023/01/17 05:44:14;;;;;;;5.70;4.37;;;6.90;53.70;;;;;;5028912;28;20804;-87
2023/01/17 05:46:41;;;;;;;3.17;2.37;;;6.90;53.60;;;;;;5063219;28;21071;-86
2023/01/17 05:49:08;;;;;;;3.30;3.00;;;6.90;53.70;;;;;;5038054;28;20529;-86
2023/01/17 05:51:36;;;;;;;6.00;3.00;;;6.80;53.60;;;;;;5053123;28;20542;-90
2023/01/17 05:54:05;;;;;;;6.80;3.13;;;6.80;53.50;;;;;;5048292;28;21173;-88
2023/01/17 05:56:33;;;;;;;5.37;3.30;;;7.00;53.70;;;;;;5033341;28;20446;-89
2023/01/17 05:59:00;;;;;;;4.27;2.90;;;6.50;54.20;;;;;;5047160;28;20460;-87
2023/01/17 06:01:27;;;;;;;3.07;2.77;;;6.40;54.70;;;;;;5032440;28;20468;-89
2023/01/17 06:03:53;;;;;;;3.20;2.27;;;6.20;55.00;;;;;;5051526;28;20464;-89
2023/01/17 06:06:20;;;;;;;2.00;1.80;;;6.20;55.20;;;;;;5050299;28;20456;-88
2023/01/17 06:08:47;;;;;;;3.00;2.20;;;6.30;54.90;;;;;;5028846;28;20439;-88
2023/01/17 06:11:17;;;;;;;4.50;2.73;;;6.30;54.50;;;;;;5034654;28;20491;-88
2023/01/17 06:13:44;;;;;;;4.70;2.97;;;6.50;54.70;;;;;;5047554;28;20533;-88
2023/01/17 06:16:11;;;;;;;3.50;2.60;;;6.30;54.70;;;;;;5061486;28;20482;-88
2023/01/17 06:18:38;;;;;;;7.10;2.80;;;6.30;55.00;;;;;;5043612;28;20482;-87
2023/01/17 06:21:05;;;;;;;6.87;3.47;;;6.40;54.70;;;;;;5048291;28;20463;-86
2023/01/17 06:23:32;;;;;;;7.87;3.00;;;6.40;54.60;;;;;;5049106;28;20458;-87
2023/01/17 06:26:03;;;;;;;4.80;2.30;;;6.40;54.70;;;;;;5065417;28;20444;-88
2023/01/17 06:28:31;;;;;;;4.93;2.60;;;6.30;54.70;;;;;;5028056;28;20548;-87
2023/01/17 06:30:58;;;;;;;2.70;2.43;;;6.30;54.80;;;;;;5044261;28;20453;-88
2023/01/17 06:33:25;;;;;;;5.10;2.17;;;6.40;54.60;;;;;;5048955;28;20463;-88
2023/01/17 06:35:53;;;;;;;2.73;2.33;;;6.40;54.70;;;;;;5028465;28;20468;-87
2023/01/17 06:38:20;;;;;;;15.17;2.90;;;6.40;54.80;;;;;;5049633;28;20444;-87
2023/01/17 06:40:47;;;;;;;2.87;2.17;;;6.50;54.50;;;;;;5044669;28;20479;-88
2023/01/17 06:43:14;;;;;;;3.00;2.17;;;6.40;54.60;;;;;;5043390;28;20459;-88
2023/01/17 06:45:42;;;;;;;5.83;2.00;;;6.30;54.70;;;;;;5049704;28;20448;-88
2023/01/17 06:48:09;;;;;;;2.63;1.87;;;6.50;54.60;;;;;;5031010;28;20447;-88
2023/01/17 06:50:36;;;;;;;2.37;2.03;;;6.30;55.00;;;;;;5033139;28;20467;-89
2023/01/17 06:53:05;;;;;;;5.53;2.17;;;6.30;54.90;;;;;;5031041;28;20449;-87
2023/01/17 06:55:33;;;;;;;2.33;2.13;;;6.40;55.00;;;;;;5043836;28;20490;-87
2023/01/17 06:58:01;;;;;;;3.30;2.40;;;6.30;55.10;;;;;;5031700;28;20468;-88
2023/01/17 07:00:29;;;;;;;1.90;1.80;;;6.40;55.20;;;;;;5072828;28;21516;-90
2023/01/17 07:02:57;;;;;;;2.60;1.63;;;6.40;55.40;;;;;;5030768;28;20534;-89
2023/01/17 07:05:26;;;;;;;1.40;1.30;;;6.50;54.60;;;;;;5031025;28;20496;-90
2023/01/17 07:07:53;;;;;;;2.77;2.07;;;6.50;55.00;;;;;;5045673;28;20952;-89
2023/01/17 07:10:20;;;;;;;3.73;2.10;;;6.50;55.00;;;;;;5061113;28;20452;-88
2023/01/17 07:12:47;;;;;;;2.30;2.10;;;6.70;54.90;;;;;;5033085;28;20456;-89
2023/01/17 07:15:14;;;;;;;3.30;2.50;;;6.70;54.80;;;;;;5063684;28;20448;-89
2023/01/17 07:17:41;;;;;;;6.93;2.80;;;6.90;54.60;;;;;;5033279;28;20965;-88
2023/01/17 07:20:10;;;;;;;2.80;2.30;;;6.90;54.20;;;;;;5024121;28;20486;-88
2023/01/17 07:22:37;;;;;;;2.50;2.30;;;7.00;53.90;;;;;;5031491;28;20448;-88
2023/01/17 07:25:05;;;;;;;2.17;1.97;;;7.10;53.70;;;;;;5031082;28;20965;-88
2023/01/17 07:27:32;;;;;;;2.53;2.33;;;6.90;53.50;;;;;;5030615;28;20456;-90
2023/01/17 07:29:59;;;;;;;3.23;2.00;;;6.80;53.90;;;;;;5026835;28;20468;-87
2023/01/17 07:32:26;;;;;;;2.30;2.10;;;6.70;53.90;;;;;;5031067;28;20460;-88
2023/01/17 07:34:53;;;;;;;4.00;3.57;;;6.80;54.00;;;;;;5045085;28;20478;-88
2023/01/17 07:37:21;;;;;;;6.03;3.53;;;6.70;54.30;;;;;;5045441;28;20810;-87
2023/01/17 07:39:48;;;;;;;3.03;2.50;;;6.80;54.30;;;;;;5048152;28;20830;-88
2023/01/17 07:42:15;;;;;;;2.80;2.60;;;6.80;53.90;;;;;;5031924;28;20454;-88
2023/01/17 07:44:43;;;;;;;9.17;5.63;;;7.00;53.70;;;;;;5031939;28;20866;-87
2023/01/17 07:47:10;;;;;;;11.53;6.27;;;7.10;53.10;;;;;;5023245;28;20444;-88
2023/01/17 07:49:38;;;;;;;10.93;5.70;;;7.10;53.20;;;;;;5045403;28;20980;-87
2023/01/17 07:52:06;;;;;;;9.73;4.90;;;7.20;53.10;;;;;;5043553;28;20968;-87
2023/01/17 07:54:35;;;;;;;11.23;5.03;;;7.10;52.70;;;;;;5047919;28;20444;-89
2023/01/17 07:57:03;;;;;;;9.40;4.73;;;7.20;53.00;;;;;;5023838;28;20502;-87
2023/01/17 07:59:32;;;;;;;5.43;3.83;;;7.20;53.60;;;;;;5042781;28;20465;-89
2023/01/17 08:01:59;;;;;;;6.80;4.53;;;7.30;53.20;;;;;;5081271;28;20454;-88
2023/01/17 08:04:27;;;;;;;6.27;4.10;;;7.40;52.80;;;;;;5026900;28;20467;-90
2023/01/17 08:06:54;;;;;;;4.47;2.80;;;7.40;52.60;;;;;;5028903;28;21107;-88
2023/01/17 08:09:21;;;;;;;3.90;2.63;;;7.40;53.10;;;;;;5046257;28;20479;-88
2023/01/17 08:11:50;;;;;;;3.50;2.80;;;7.40;52.40;;;;;;5065117;28;20472;-87
2023/01/17 08:14:17;;;;;;;6.70;4.57;;;7.40;52.40;;;;;;5044561;28;20483;-89
2023/01/17 08:16:43;;;;;;;4.30;2.73;;;7.40;52.40;;;;;;5048725;28;20432;-88
2023/01/17 08:19:10;;;;;;;3.07;2.77;;;7.40;52.50;;;;;;5041360;28;20463;-88
2023/01/17 08:21:37;;;;;;;4.67;2.60;;;7.30;52.30;;;;;;5028084;28;20466;-86
2023/01/17 08:24:05;;;;;;;3.70;3.27;;;7.30;52.50;;;;;;5042188;28;20452;-89
2023/01/17 08:26:31;;;;;;;4.07;2.83;;;7.30;52.80;;;;;;5048541;28;20436;-89
2023/01/17 08:29:01;;;;;;;4.37;3.17;;;7.30;52.90;;;;;;5046952;28;20458;-90
2023/01/17 08:31:29;;;;;;;5.33;3.50;;;7.30;53.00;;;;;;5038606;28;20475;-88
2023/01/17 08:33:57;;;;;;;56.10;16.30;;;7.40;53.00;;;;;;5045508;28;20459;-89
2023/01/17 08:36:25;;;;;;;132.43;47.33;;;7.30;52.60;;;;;;5031988;28;20436;-87
2023/01/17 08:38:52;;;;;;;40.13;24.13;;;7.10;53.30;;;;;;5044956;28;20532;-87
2023/01/17 08:41:19;;;;;;;31.23;18.07;;;6.80;53.40;;;;;;5055459;28;20526;-89
2023/01/17 08:43:47;;;;;;;12.43;8.23;;;6.70;54.20;;;;;;5048953;28;20497;-90
2023/01/17 08:46:16;;;;;;;4.83;3.27;;;6.40;54.60;;;;;;5046942;28;20563;-87
2023/01/17 08:48:43;;;;;;;4.77;3.33;;;5.80;56.00;;;;;;5045798;28;20704;-87
2023/01/17 08:51:11;;;;;;;6.47;3.07;;;5.80;56.60;;;;;;5029264;28;20480;-87
2023/01/17 08:53:38;;;;;;;3.43;2.57;;;6.00;56.10;;;;;;5064128;28;20436;-89
2023/01/17 08:56:05;;;;;;;3.80;2.70;;;6.20;55.90;;;;;;5028044;28;20447;-89
2023/01/17 08:58:33;;;;;;;7.37;4.00;;;6.40;55.50;;;;;;5060204;28;20945;-88
2023/01/17 09:01:01;;;;;;;8.70;4.67;;;6.50;55.30;;;;;;5029234;28;20479;-89
2023/01/17 09:03:30;;;;;;;11.90;6.87;;;6.70;55.10;;;;;;5041697;28;20451;-89
2023/01/17 09:06:04;;;;;;;7.43;3.93;;;6.70;54.80;;;;;;5046286;28;20435;-88
2023/01/17 09:08:31;;;;;;;10.43;4.50;;;6.70;54.70;;;;;;5028588;28;20436;-88
2023/01/17 09:10:58;;;;;;;9.73;3.40;;;6.50;55.30;;;;;;5025776;28;20465;-88
2023/01/17 09:13:25;;;;;;;7.13;4.27;;;6.60;55.10;;;;;;5030893;28;20791;-88
2023/01/17 09:15:56;;;;;;;4.33;2.70;;;6.70;55.10;;;;;;5046787;28;20508;-89
2023/01/17 09:18:23;;;;;;;4.40;2.70;;;6.80;54.60;;;;;;5043401;28;20535;-86
2023/01/17 09:20:53;;;;;;;3.90;2.53;;;6.80;54.60;;;;;;5048026;28;20463;-88
2023/01/17 09:23:21;;;;;;;9.27;3.80;;;6.90;54.50;;;;;;5057382;28;21026;-87
2023/01/17 09:25:52;;;;;;;4.17;2.70;;;7.00;54.40;;;;;;5035360;28;20857;-88
2023/01/17 09:28:19;;;;;;;5.20;4.00;;;7.10;54.20;;;;;;5033817;28;20456;-89
2023/01/17 09:30:46;;;;;;;9.33;5.00;;;7.10;54.10;;;;;;5050741;28;20478;-89
2023/01/17 09:33:14;;;;;;;5.93;4.57;;;7.20;54.10;;;;;;5032363;28;22053;-89
2023/01/17 09:35:41;;;;;;;8.20;4.60;;;7.20;53.70;;;;;;5046368;28;20452;-88
2023/01/17 09:38:09;;;;;;;10.37;4.80;;;7.20;53.60;;;;;;5047507;28;20447;-88
2023/01/17 09:40:37;;;;;;;7.27;4.57;;;7.30;53.80;;;;;;5066816;28;20478;-89
2023/01/17 09:43:17;;;;;;;8.60;4.20;;;7.40;54.20;;;;;;5050614;28;20463;-89
2023/01/17 09:45:44;;;;;;;7.10;4.67;;;7.50;53.50;;;;;;5031785;28;20444;-88
2023/01/17 09:48:21;;;;;;;8.13;4.00;;;7.50;53.40;;;;;;5050126;28;20468;-88
2023/01/17 09:50:53;;;;;;;6.67;3.43;;;7.60;53.40;;;;;;5063727;28;20470;-87
2023/01/17 09:53:21;;;;;;;9.07;4.40;;;7.40;53.30;;;;;;5074241;28;20493;-88
2023/01/17 09:55:54;;;;;;;4.93;3.20;;;7.40;53.40;;;;;;5065223;28;20456;-89
2023/01/17 09:58:26;;;;;;;3.77;2.87;;;7.30;53.40;;;;;;5063162;28;20448;-88
2023/01/17 10:01:02;;;;;;;3.13;2.80;;;7.30;53.70;;;;;;5062604;28;21032;-87
2023/01/17 10:03:46;;;;;;;107.40;16.70;;;7.30;53.90;;;;;;5031167;28;20504;-89
2023/01/17 10:06:23;;;;;;;4.93;3.40;;;7.40;54.10;;;;;;5045471;28;20453;-87
2023/01/17 10:09:06;;;;;;;8.30;2.60;;;7.30;54.00;;;;;;5045340;28;21314;-87
2023/01/17 10:11:41;;;;;;;4.60;3.10;;;7.20;53.50;;;;;;5026943;28;20465;-87
2023/01/17 10:14:31;;;;;;;5.50;2.63;;;7.40;53.50;;;;;;5049136;28;20964;-88
2023/01/17 10:17:05;;;;;;;4.40;2.57;;;7.60;53.50;;;;;;5032497;28;20445;-87
2023/01/17 10:19:49;;;;;;;3.73;2.67;;;7.70;52.80;;;;;;5030716;28;20452;-87
2023/01/17 10:22:31;;;;;;;5.63;3.23;;;7.70;53.00;;;;;;5045454;28;20815;-88
2023/01/17 10:25:41;;;;;;;10.20;5.13;;;7.70;52.40;;;;;;5050293;28;21110;-88
2023/01/17 10:28:15;;;;;;;4.77;2.70;;;7.60;52.90;;;;;;5020925;28;20462;-88
2023/01/17 10:30:48;;;;;;;5.17;2.83;;;7.50;53.80;;;;;;5003713;28;20458;-87
2023/01/17 10:33:18;;;;;;;4.83;2.90;;;7.70;54.50;;;;;;5027660;28;20454;-88
2023/01/17 10:35:55;;;;;;;4.73;3.00;;;7.50;54.50;;;;;;5083222;28;20439;-88
2023/01/17 10:38:28;;;;;;;10.20;3.20;;;7.60;55.20;;;;;;5041410;28;20493;-87
2023/01/17 10:41:02;;;;;;;4.73;2.90;;;7.60;54.20;;;;;;5041868;28;20475;-86
2023/01/17 10:43:39;;;;;;;4.73;3.43;;;7.50;55.00;;;;;;5056631;28;20445;-88
2023/01/17 10:46:15;;;;;;;12.40;3.67;;;7.70;55.20;;;;;;5029792;28;20504;-88
2023/01/17 10:48:44;;;;;;;3.50;2.90;;;8.00;54.90;;;;;;5009969;28;20456;-88
2023/01/17 10:51:21;;;;;;;7.80;3.20;;;8.20;54.40;;;;;;5022376;28;20492;-89
2023/01/17 10:54:03;;;;;;;3.00;2.60;;;8.10;53.60;;;;;;5084002;28;20475;-88
2023/01/17 10:56:33;;;;;;;4.73;3.37;;;8.20;53.80;;;;;;5024794;28;20502;-88
2023/01/17 10:59:28;;;;;;;5.60;3.13;;;8.40;53.00;;;;;;5025515;28;20462;-86
2023/01/17 11:01:55;;;;;;;4.27;3.30;;;8.20;52.20;;;;;;5048544;28;20590;-87
2023/01/17 11:04:29;;;;;;;5.57;3.63;;;8.40;52.00;;;;;;5039609;28;20457;-89
2023/01/17 11:07:12;;;;;;;5.53;3.10;;;8.30;52.40;;;;;;5021680;28;20439;-89
2023/01/17 11:09:41;;;;;;;5.13;2.70;;;8.40;50.20;;;;;;5054683;28;20480;-88
2023/01/17 11:12:19;;;;;;;8.70;2.77;;;8.70;50.60;;;;;;5062306;28;20436;-89
2023/01/17 11:14:59;;;;;;;2.70;2.20;;;8.70;47.70;;;;;;5063591;28;20841;-88
2023/01/17 11:17:27;;;;;;;4.50;3.50;;;8.60;47.70;;;;;;5043320;28;20437;-88
2023/01/17 11:20:05;;;;;;;3.23;2.57;;;8.80;48.30;;;;;;5030915;28;20453;-87
2023/01/17 11:22:33;;;;;;;2.80;2.60;;;8.90;48.40;;;;;;5037554;28;20975;-87
2023/01/17 11:25:00;;;;;;;9.60;6.47;;;8.70;46.60;;;;;;5053256;28;20459;-87
2023/01/17 11:27:31;;;;;;;5.17;2.20;;;8.80;46.60;;;;;;5044798;28;20440;-88
2023/01/17 11:30:15;;;;;;;6.33;3.90;;;8.80;45.30;;;;;;5022911;28;20475;-86
2023/01/17 11:32:52;;;;;;;2.63;2.23;;;8.80;46.50;;;;;;5061482;28;20971;-88
2023/01/17 11:35:24;;;;;;;2.60;2.40;;;8.80;45.20;;;;;;5060998;28;22672;-87
2023/01/17 11:38:03;;;;;;;3.07;2.77;;;8.70;45.90;;;;;;5026666;28;20436;-88
2023/01/17 11:40:33;;;;;;;2.60;2.40;;;8.80;46.80;;;;;;5060489;28;20468;-87
2023/01/17 11:43:04;;;;;;;3.23;1.73;;;8.90;44.80;;;;;;5062631;28;20536;-87
2023/01/17 11:45:32;;;;;;;4.83;2.23;;;8.90;43.50;;;;;;5033377;28;20445;-88
2023/01/17 11:48:12;;;;;;;4.07;2.00;;;9.10;43.80;;;;;;5040623;28;20456;-89
2023/01/17 11:50:42;;;;;;;3.10;2.30;;;9.10;43.20;;;;;;5028894;28;20861;-88
2023/01/17 11:53:19;;;;;;;3.50;2.90;;;9.10;43.80;;;;;;5061971;28;21066;-87
2023/01/17 11:55:54;;;;;;;3.57;2.47;;;9.10;44.80;;;;;;5062475;28;20792;-87
2023/01/17 11:58:23;;;;;;;3.00;2.70;;;9.20;45.40;;;;;;5036312;28;20451;-89
2023/01/17 12:00:59;;;;;;;2.30;2.00;;;9.40;45.00;;;;;;5044392;28;20496;-88
2023/01/17 12:03:46;;;;;;;3.73;2.87;;;9.50;43.70;;;;;;5048932;28;20444;-87
2023/01/17 12:06:19;;;;;;;4.07;2.40;;;9.60;43.30;;;;;;5039442;28;20439;-86
2023/01/17 12:08:58;;;;;;;5.10;2.97;;;9.40;42.70;;;;;;5042268;28;20459;-87
2023/01/17 12:11:34;;;;;;;3.70;2.60;;;9.20;43.20;;;;;;5032205;28;20472;-88
2023/01/17 12:14:10;;;;;;;4.00;2.60;;;9.40;43.60;;;;;;5030099;28;20448;-87
2023/01/17 12:16:57;;;;;;;2.73;2.33;;;9.60;42.80;;;;;;5031930;28;20939;-89
2023/01/17 12:19:37;;;;;;;4.97;3.00;;;9.70;43.40;;;;;;5029079;28;20449;-90
2023/01/17 12:22:22;;;;;;;5.53;1.97;;;10.10;43.10;;;;;;5069819;28;20467;-89
2023/01/17 12:25:17;;;;;;;2.77;1.87;;;10.00;41.30;;;;;;5030249;28;20447;-88
2023/01/17 12:27:55;;;;;;;2.63;1.80;;;10.10;42.00;;;;;;5032297;28;20436;-89
2023/01/17 12:30:33;;;;;;;2.57;1.63;;;10.20;40.40;;;;;;5078293;28;20474;-88
2023/01/17 12:33:14;;;;;;;2.20;1.83;;;10.40;42.00;;;;;;5045117;28;20816;-88
2023/01/17 12:35:47;;;;;;;4.67;2.07;;;10.60;42.10;;;;;;5028856;28;20538;-88
2023/01/17 12:38:20;;;;;;;2.10;1.90;;;10.90;40.50;;;;;;5062189;28;21096;-88
2023/01/17 12:40:50;;;;;;;3.70;2.47;;;11.10;39.70;;;;;;5078957;28;20468;-89
2023/01/17 12:43:25;;;;;;;3.33;2.30;;;11.30;38.40;;;;;;5042865;28;20448;-89
2023/01/17 12:45:54;;;;;;;3.23;2.00;;;11.30;38.50;;;;;;5049281;28;20440;-89
2023/01/17 12:48:24;;;;;;;1.93;1.40;;;11.40;36.60;;;;;;5022468;28;20860;-87
2023/01/17 12:50:56;;;;;;;1.53;1.43;;;11.70;37.70;;;;;;5045561;28;20831;-89
2023/01/17 12:53:32;;;;;;;1.60;1.30;;;11.80;35.70;;;;;;5056824;28;20861;-87
2023/01/17 12:56:05;;;;;;;4.00;2.20;;;12.00;36.00;;;;;;5059870;28;20450;-89
2023/01/17 12:58:39;;;;;;;2.97;2.10;;;12.00;35.00;;;;;;5060978;28;21977;-87
2023/01/17 13:01:18;;;;;;;2.27;2.07;;;12.30;36.50;;;;;;5044629;28;20471;-89
2023/01/17 13:03:51;;;;;;;2.33;2.00;;;12.20;36.10;;;;;;5009926;28;1142769;-88
2023/01/17 13:06:24;;;;;;;2.13;1.70;;;12.40;36.10;;;;;;5030717;28;20208;-87
2023/01/17 13:08:54;;;;;;;3.20;2.00;;;12.30;36.60;;;;;;5030826;28;20451;-88
2023/01/17 13:11:28;;;;;;;3.03;2.20;;;11.90;35.10;;;;;;5042288;28;20491;-88
2023/01/17 13:13:58;;;;;;;1.57;1.40;;;11.80;37.40;;;;;;5063066;28;20444;-88
2023/01/17 13:16:31;;;;;;;3.20;1.97;;;11.30;35.80;;;;;;5078619;28;20996;-88
2023/01/17 13:19:07;;;;;;;1.90;1.70;;;10.80;37.90;;;;;;5046703;28;20514;-88
2023/01/17 13:21:35;;;;;;;3.03;2.40;;;10.50;37.90;;;;;;5043585;28;20475;-88
2023/01/17 13:24:29;;;;;;;1.80;1.40;;;10.40;38.40;;;;;;5057315;28;20449;-89
2023/01/17 13:27:32;;;;;;;2.90;1.80;;;10.40;38.60;;;;;;5041077;28;20451;-89
2023/01/17 13:30:16;;;;;;;4.23;2.23;;;10.40;39.20;;;;;;5047381;28;20450;-88
2023/01/17 13:33:05;;;;;;;3.00;2.20;;;10.40;39.80;;;;;;5060801;28;20514;-88
2023/01/17 13:35:40;;;;;;;6.27;2.37;;;10.50;40.00;;;;;;5021865;28;21752;-89
2023/01/17 13:38:28;;;;;;;4.07;2.80;;;10.80;40.70;;;;;;5060806;28;20534;-86
2023/01/17 13:41:00;;;;;;;3.00;1.77;;;11.00;39.90;;;;;;5040576;28;20482;-88
2023/01/17 13:43:33;;;;;;;4.67;2.30;;;10.80;36.90;;;;;;5035076;28;21060;-88
2023/01/17 13:46:02;;;;;;;3.27;2.27;;;10.60;37.50;;;;;;5050288;28;20821;-89
2023/01/17 13:48:36;;;;;;;3.77;1.40;;;10.70;38.60;;;;;;5042120;28;20443;-89
2023/01/17 13:51:04;;;;;;;4.67;1.93;;;10.50;38.30;;;;;;5029268;28;20981;-89
2023/01/17 13:53:58;;;;;;;2.30;1.77;;;10.50;38.90;;;;;;5046255;28;21000;-90
2023/01/17 13:56:35;;;;;;;4.33;1.50;;;10.60;38.80;;;;;;5044693;28;20495;-89
2023/01/17 13:59:30;;;;;;;12.40;6.60;;;10.80;38.90;;;;;;5080948;28;20466;-87
2023/01/17 14:01:57;;;;;;;10.23;3.50;;;10.50;38.30;;;;;;5064420;28;20456;-89
2023/01/17 14:05:04;;;;;;;49.93;18.33;;;10.20;39.50;;;;;;5026065;28;20452;-88
2023/01/17 14:07:33;;;;;;;9.80;4.80;;;10.10;39.10;;;;;;5069173;28;20450;-89
2023/01/17 14:10:01;;;;;;;3.93;3.33;;;10.20;39.60;;;;;;5027914;28;20447;-88
2023/01/17 14:12:32;;;;;;;3.97;2.60;;;10.30;39.60;;;;;;5047460;28;20459;-87
2023/01/17 14:15:01;;;;;;;3.60;2.50;;;10.40;40.00;;;;;;5041496;28;20456;-89
2023/01/17 14:17:57;;;;;;;9.90;2.37;;;10.40;39.40;;;;;;5048408;28;20538;-88
2023/01/17 14:20:52;;;;;;;1.93;1.73;;;10.30;39.90;;;;;;5059292;28;20586;-88
2023/01/17 14:24:02;;;;;;;2.00;1.60;;;10.20;39.90;;;;;;5047195;28;20452;-87
2023/01/17 14:26:50;;;;;;;4.30;2.13;;;9.90;40.80;;;;;;5033834;28;20456;-88
2023/01/17 14:29:49;;;;;;;2.20;2.00;;;9.70;40.70;;;;;;5044803;28;20896;-87
2023/01/17 14:32:19;;;;;;;4.80;2.80;;;9.60;41.10;;;;;;5043140;28;20513;-86
2023/01/17 14:34:48;;;;;;;2.63;2.10;;;9.60;42.30;;;;;;5032671;28;20451;-87
2023/01/17 14:37:20;;;;;;;3.60;2.40;;;9.60;42.00;;;;;;5025301;28;21052;-87
2023/01/17 14:39:48;;;;;;;5.23;2.67;;;9.60;42.60;;;;;;5054505;28;21007;-87
2023/01/17 14:42:20;;;;;;;3.60;3.27;;;9.50;41.60;;;;;;5062055;28;20468;-87